Hauptseite
METAR-TAF:

METAR-TAF

Flughäfen :

Yap, Mikronesien

Breite: 09-29N, Länge: 138-05E, Höhe: 28 m

Beobachtung

Neuester Wetterbericht von vor 41 Minuten, um 23:53 UTC
Wind 8 kt aus Nordost
Temperatur 27°C
Luftfeuchtigkeit 89%
Luftdruck 1013 hPa
Sichtweite: 19.3 km
Aufgelockert bewölkt in der Höhe von 1600 ft, Kumulonimbus.
Durchbrochene Bewölkung in der Höhe von 13000 ft
Geschlossene Wolkendecke in der Höhe von 30000 ft

METAR: PTYA 202353Z 05008KT 12SM SCT016CB BKN130 OVC300 27/25 A2992 RMK SHRAB15E33 CB SE-S SLP134 60014 8/378 T02690252 10270 20250 52012

Zeit: 10:34 (00:34 UTC)

Prognose

Neuester Wetterbericht von vor 52 Minuten, um 23:42 UTC
Gültige Prognose vom 21 um 00 UTC bis 21 um 24 UTC
Wind 13 kt aus Nordost
Sichtweite: 10 km
Aufgelockert bewölkt in der Höhe von 1600 ft
Aufgelockert bewölkt in der Höhe von 10000 ft
Schauer in der Nähe

TAF: PTYA 202342Z 2100/2124 05013KT P6SM VCSH SCT016 SCT100

Wetterbeobachtungen und Prognosen von mehr als 4000 Flughäfen (METAR und TAF Bericht).

Die verfügbaren Stationen werden durch gelbe und rote Markierungen auf der Karte dargestellt.

Führen Sie die Maus auf sie, um den Namen der Station zu sehen.

Darauf klicken, um die Beobachtung von Wetterbeobachtungen und Prognosen zu sehen.

Um die Karte zu ändern : klicken Sie auf den grünen Tasten mit einem schwarzen Kreuz Zum Vergrößern, auf den grünen Button mit einem Gedankenstrich zu verkleinern, oder auf die grünen Pfeile für benachbarte Karten.


METAR-TAF: